createdAt,value
2023-03-29T00:03:19.767Z,21.99
2023-03-29T00:07:19.852Z,22.00
2023-03-29T00:11:20.021Z,21.99
2023-03-29T00:15:20.224Z,21.98
2023-03-29T00:19:20.381Z,21.97
2023-03-29T00:23:20.538Z,21.97
2023-03-29T00:27:20.729Z,21.97
2023-03-29T00:31:20.924Z,21.98
2023-03-29T00:35:21.104Z,21.97
2023-03-29T00:39:21.300Z,21.97
2023-03-29T00:43:21.386Z,21.97
2023-03-29T00:47:21.575Z,21.98
2023-03-29T00:51:21.785Z,21.97
2023-03-29T00:55:21.924Z,21.95
2023-03-29T00:59:22.075Z,21.96
2023-03-29T01:03:22.282Z,21.96
2023-03-29T01:07:22.410Z,21.95
2023-03-29T01:11:22.660Z,21.94
2023-03-29T01:15:22.814Z,21.93
2023-03-29T01:19:23.038Z,21.94
2023-03-29T01:23:23.207Z,21.92
2023-03-29T01:27:23.385Z,21.91
2023-03-29T01:31:23.662Z,21.91
2023-03-29T01:35:23.641Z,21.90
2023-03-29T01:39:23.542Z,21.91
2023-03-29T01:43:23.504Z,21.91
2023-03-29T01:47:23.516Z,21.91
2023-03-29T01:51:23.429Z,21.90
2023-03-29T01:55:23.382Z,21.90
2023-03-29T01:59:23.357Z,21.91
2023-03-29T02:03:23.363Z,21.90
2023-03-29T02:07:23.300Z,21.89
2023-03-29T02:11:23.274Z,21.88
2023-03-29T02:15:23.289Z,21.86
2023-03-29T02:19:23.276Z,21.85
2023-03-29T02:23:23.249Z,21.85
2023-03-29T02:27:23.162Z,21.84
2023-03-29T02:31:23.263Z,21.82
2023-03-29T02:35:23.086Z,21.83
2023-03-29T02:39:23.054Z,21.82
2023-03-29T02:43:25.277Z,21.82
2023-03-29T02:47:23.038Z,21.81
2023-03-29T02:51:22.981Z,21.81
2023-03-29T02:55:22.926Z,21.80
2023-03-29T02:59:22.887Z,21.80
2023-03-29T03:03:22.971Z,21.78
2023-03-29T03:07:22.820Z,21.79
2023-03-29T03:11:22.849Z,21.77
2023-03-29T03:15:22.776Z,21.77
2023-03-29T03:19:22.848Z,21.76
2023-03-29T03:23:22.785Z,21.76
2023-03-29T03:27:22.738Z,21.75
2023-03-29T03:31:22.698Z,21.74
2023-03-29T03:35:22.681Z,21.75
2023-03-29T03:39:22.643Z,21.75
2023-03-29T03:43:22.590Z,21.75
2023-03-29T03:47:22.587Z,21.74
2023-03-29T03:51:22.534Z,21.74
2023-03-29T03:55:22.497Z,21.72
2023-03-29T03:59:22.633Z,21.72
2023-03-29T04:03:22.755Z,21.72
2023-03-29T04:07:22.495Z,21.71
2023-03-29T04:11:22.468Z,21.70
2023-03-29T04:15:22.651Z,21.70
2023-03-29T04:19:22.411Z,21.69
2023-03-29T04:23:22.356Z,21.68
2023-03-29T04:27:22.352Z,21.67
2023-03-29T04:31:22.371Z,21.66
2023-03-29T04:35:22.285Z,21.66
2023-03-29T04:39:22.252Z,21.67
2023-03-29T04:43:22.166Z,21.65
2023-03-29T04:47:22.195Z,21.64
2023-03-29T04:51:22.190Z,21.65
2023-03-29T04:55:22.114Z,21.65
2023-03-29T04:59:22.083Z,21.65
2023-03-29T05:03:22.022Z,21.68
2023-03-29T05:07:21.996Z,21.69
2023-03-29T05:11:21.984Z,21.69
2023-03-29T05:15:21.935Z,21.68
2023-03-29T05:19:21.923Z,21.68
2023-03-29T05:23:21.832Z,21.68
2023-03-29T05:27:21.834Z,21.68
2023-03-29T05:31:21.939Z,21.67
2023-03-29T05:35:22.035Z,21.69
2023-03-29T05:39:22.039Z,21.72
2023-03-29T05:43:22.218Z,21.76
2023-03-29T05:47:21.937Z,21.80
2023-03-29T05:51:22.215Z,21.86
2023-03-29T05:55:21.879Z,21.94
2023-03-29T05:59:22.205Z,22.04
2023-03-29T06:03:22.244Z,22.11
2023-03-29T06:07:22.207Z,22.18
2023-03-29T06:11:21.692Z,22.27
2023-03-29T06:15:21.657Z,22.36
2023-03-29T06:19:21.687Z,22.44
2023-03-29T06:23:21.703Z,22.52
2023-03-29T06:27:21.805Z,22.57
2023-03-29T06:31:21.924Z,22.48
2023-03-29T06:35:22.027Z,22.18
2023-03-29T06:39:22.283Z,21.95
2023-03-29T06:43:22.477Z,21.92
2023-03-29T06:47:22.712Z,22.08
2023-03-29T06:51:23.431Z,22.31
2023-03-29T06:55:22.750Z,22.58
2023-03-29T06:59:22.338Z,22.71
2023-03-29T07:03:22.286Z,22.90
2023-03-29T07:07:22.777Z,23.03
2023-03-29T07:11:22.232Z,23.14
2023-03-29T07:15:22.265Z,23.23
2023-03-29T07:19:22.161Z,23.30
2023-03-29T07:23:22.200Z,23.39
2023-03-29T07:27:22.279Z,23.46
2023-03-29T07:31:22.730Z,23.51
2023-03-29T07:35:22.758Z,23.56
2023-03-29T07:39:22.705Z,23.60
2023-03-29T07:43:22.611Z,23.65
2023-03-29T07:47:29.758Z,23.55
2023-03-29T07:51:22.728Z,23.41
2023-03-29T07:55:22.603Z,23.28
2023-03-29T07:59:22.581Z,23.17
2023-03-29T08:03:22.622Z,23.08
2023-03-29T08:07:22.522Z,23.01
2023-03-29T08:11:22.506Z,22.96
2023-03-29T08:15:22.464Z,22.91
2023-03-29T08:19:22.482Z,22.86
2023-03-29T08:23:22.444Z,22.82
2023-03-29T08:27:22.453Z,22.78
2023-03-29T08:31:22.494Z,22.77
2023-03-29T08:35:22.424Z,22.75
2023-03-29T08:39:22.774Z,22.73
2023-03-29T08:43:22.527Z,22.76
2023-03-29T08:47:22.796Z,22.79
2023-03-29T08:51:22.761Z,22.79
2023-03-29T08:55:22.489Z,22.80
2023-03-29T08:59:22.492Z,22.81
2023-03-29T09:03:22.578Z,22.85
2023-03-29T09:07:25.309Z,22.86
2023-03-29T09:11:22.576Z,22.61
2023-03-29T09:15:22.493Z,22.67
2023-03-29T09:19:22.451Z,22.79
2023-03-29T09:23:22.787Z,22.90
2023-03-29T09:27:22.374Z,22.98
2023-03-29T09:31:22.884Z,23.07
2023-03-29T09:35:22.357Z,23.13
2023-03-29T09:39:22.791Z,23.19
2023-03-29T09:43:22.288Z,23.21
2023-03-29T09:47:22.426Z,23.32
2023-03-29T09:51:22.758Z,23.37
2023-03-29T09:55:22.712Z,23.42
2023-03-29T09:59:22.889Z,23.50
2023-03-29T10:03:22.932Z,23.59
2023-03-29T10:07:22.989Z,23.65
2023-03-29T10:11:23.368Z,23.75
2023-03-29T10:15:29.788Z,23.87
2023-03-29T10:19:23.996Z,23.95
2023-03-29T10:23:22.944Z,24.03
2023-03-29T10:27:22.935Z,24.09
2023-03-29T10:31:23.148Z,24.16
2023-03-29T10:35:23.294Z,24.23
2023-03-29T10:39:23.309Z,24.25
2023-03-29T10:43:22.764Z,24.27
2023-03-29T10:47:22.768Z,24.34
2023-03-29T10:51:22.713Z,24.38
2023-03-29T10:55:22.681Z,24.42
2023-03-29T10:59:22.656Z,24.45
2023-03-29T11:03:22.780Z,24.49
2023-03-29T11:07:22.592Z,24.53
2023-03-29T11:11:22.526Z,24.57
2023-03-29T11:15:22.817Z,24.61
2023-03-29T11:19:22.510Z,24.67
2023-03-29T11:23:22.472Z,24.72
2023-03-29T11:27:22.802Z,24.74
2023-03-29T11:31:22.841Z,24.71
2023-03-29T11:35:22.778Z,24.58
2023-03-29T11:39:22.904Z,24.46
2023-03-29T11:43:23.070Z,24.38
2023-03-29T11:47:23.253Z,24.31
2023-03-29T11:51:23.436Z,24.26
2023-03-29T11:55:23.678Z,24.21
2023-03-29T11:59:23.596Z,24.17
2023-03-29T12:03:23.670Z,24.14
2023-03-29T12:07:23.547Z,24.11
2023-03-29T12:11:23.531Z,24.09
2023-03-29T12:15:23.473Z,24.07
2023-03-29T12:19:23.466Z,24.05
2023-03-29T12:23:23.395Z,24.07
2023-03-29T12:27:23.418Z,24.10
2023-03-29T12:31:23.447Z,24.09
2023-03-29T12:35:23.427Z,24.07
2023-03-29T12:39:23.583Z,24.05
2023-03-29T12:43:23.780Z,24.04
2023-03-29T12:47:23.971Z,24.03
2023-03-29T12:51:24.133Z,24.03
2023-03-29T12:55:24.309Z,24.03
2023-03-29T12:59:24.429Z,24.01
2023-03-29T13:03:24.461Z,24.00
2023-03-29T13:07:24.421Z,23.97
2023-03-29T13:11:24.413Z,23.93
2023-03-29T13:15:24.407Z,23.89
2023-03-29T13:19:24.432Z,23.83
2023-03-29T13:23:24.472Z,23.77
2023-03-29T13:27:24.541Z,23.72
2023-03-29T13:31:24.656Z,23.68
2023-03-29T13:35:24.625Z,23.64
2023-03-29T13:39:24.736Z,23.59
2023-03-29T13:43:24.811Z,23.55
2023-03-29T13:47:24.985Z,23.51
2023-03-29T13:51:25.045Z,23.47
2023-03-29T13:55:25.159Z,23.44
2023-03-29T13:59:25.227Z,23.41
2023-03-29T14:03:25.399Z,23.39
2023-03-29T14:07:25.456Z,23.37
2023-03-29T14:11:25.612Z,23.37
2023-03-29T14:15:25.704Z,23.37
2023-03-29T14:19:25.919Z,23.35
2023-03-29T14:23:26.040Z,23.35
2023-03-29T14:27:26.147Z,23.31
2023-03-29T14:31:26.307Z,23.29
2023-03-29T14:35:26.488Z,23.26
2023-03-29T14:39:26.699Z,23.24
2023-03-29T14:43:26.908Z,23.23
2023-03-29T14:47:27.136Z,23.21
2023-03-29T14:51:27.499Z,23.20
2023-03-29T14:55:27.498Z,23.18
2023-03-29T14:59:27.676Z,23.15
2023-03-29T15:03:28.056Z,23.13
2023-03-29T15:07:27.824Z,23.12
2023-03-29T15:11:27.909Z,23.10
2023-03-29T15:15:27.832Z,23.08
2023-03-29T15:19:27.742Z,23.08
2023-03-29T15:23:27.705Z,23.08
2023-03-29T15:27:27.645Z,23.10
2023-03-29T15:31:27.666Z,23.11
2023-03-29T15:35:27.613Z,23.14
2023-03-29T15:39:27.577Z,23.21
2023-03-29T15:43:27.546Z,23.25
2023-03-29T15:47:27.672Z,23.29
2023-03-29T15:51:27.799Z,23.39
2023-03-29T15:55:27.945Z,23.33
2023-03-29T15:59:28.104Z,23.26
2023-03-29T16:03:28.309Z,23.29
2023-03-29T16:07:28.393Z,23.78
2023-03-29T16:11:28.488Z,23.66
2023-03-29T16:15:28.598Z,23.51
2023-03-29T16:19:28.743Z,23.41
2023-03-29T16:23:28.928Z,23.29
2023-03-29T16:27:29.158Z,23.22
2023-03-29T16:31:29.107Z,23.14
2023-03-29T16:35:29.123Z,23.10
2023-03-29T16:39:29.041Z,23.08
2023-03-29T16:43:29.019Z,23.05
2023-03-29T16:47:28.994Z,23.03
2023-03-29T16:51:28.918Z,23.01
2023-03-29T16:55:28.894Z,22.99
2023-03-29T16:59:28.881Z,22.97
2023-03-29T17:03:28.842Z,22.94
2023-03-29T17:07:28.784Z,22.92
2023-03-29T17:11:29.078Z,22.91
2023-03-29T17:15:28.768Z,22.88
2023-03-29T17:19:28.798Z,22.88
2023-03-29T17:23:28.803Z,22.86
2023-03-29T17:27:28.822Z,22.85
2023-03-29T17:31:28.963Z,22.84
2023-03-29T17:35:28.904Z,22.83
2023-03-29T17:39:28.830Z,22.83
2023-03-29T17:43:28.796Z,22.81
2023-03-29T17:47:28.793Z,22.80
2023-03-29T17:51:28.761Z,22.77
2023-03-29T17:55:28.751Z,22.76
2023-03-29T17:59:28.772Z,22.76
2023-03-29T18:03:28.787Z,22.75
2023-03-29T18:07:28.734Z,22.74
2023-03-29T18:11:28.754Z,22.73
2023-03-29T18:15:28.763Z,22.72
2023-03-29T18:19:28.764Z,22.71
2023-03-29T18:23:28.803Z,22.70
2023-03-29T18:27:28.779Z,22.70
2023-03-29T18:31:28.825Z,22.68
2023-03-29T18:35:28.888Z,22.68
2023-03-29T18:39:28.883Z,22.66
2023-03-29T18:43:28.973Z,22.66
2023-03-29T18:47:29.041Z,22.66
2023-03-29T18:51:29.072Z,22.64
2023-03-29T18:55:29.153Z,22.64
2023-03-29T18:59:29.244Z,22.62
2023-03-29T19:03:29.468Z,22.60
2023-03-29T19:07:29.437Z,22.60
2023-03-29T19:11:29.548Z,22.58
2023-03-29T19:15:29.652Z,22.57
2023-03-29T19:19:29.693Z,22.57
2023-03-29T19:23:29.810Z,22.56
2023-03-29T19:27:29.920Z,22.56
2023-03-29T19:31:30.108Z,22.55
2023-03-29T19:35:30.189Z,22.54
2023-03-29T19:39:30.194Z,22.53
2023-03-29T19:43:30.341Z,22.53
2023-03-29T19:47:30.445Z,22.54
2023-03-29T19:51:30.526Z,22.53
2023-03-29T19:55:30.702Z,22.53
2023-03-29T19:59:30.723Z,22.51
2023-03-29T20:03:30.830Z,22.50
2023-03-29T20:07:30.911Z,22.49
2023-03-29T20:11:31.053Z,22.49
2023-03-29T20:15:31.126Z,22.49
2023-03-29T20:19:31.226Z,22.48
2023-03-29T20:23:31.358Z,22.49
2023-03-29T20:27:31.450Z,22.48
2023-03-29T20:31:31.588Z,22.47
2023-03-29T20:35:31.694Z,22.48
2023-03-29T20:39:31.775Z,22.47
2023-03-29T20:43:31.875Z,22.47
2023-03-29T20:47:31.976Z,22.46
2023-03-29T20:51:32.993Z,22.45
2023-03-29T20:55:32.144Z,22.45
2023-03-29T20:59:32.224Z,22.45
2023-03-29T21:03:32.438Z,22.44
2023-03-29T21:07:32.475Z,22.43
2023-03-29T21:11:32.601Z,22.42
2023-03-29T21:15:32.796Z,22.41
2023-03-29T21:19:32.854Z,22.40
2023-03-29T21:23:33.002Z,22.39
2023-03-29T21:27:33.107Z,22.39
2023-03-29T21:31:33.307Z,22.38
2023-03-29T21:35:33.421Z,22.38
2023-03-29T21:39:33.545Z,22.37
2023-03-29T21:43:33.639Z,22.36
2023-03-29T21:47:33.832Z,22.35
2023-03-29T21:51:33.964Z,22.34
2023-03-29T21:55:34.115Z,22.33
2023-03-29T21:59:34.278Z,22.33
2023-03-29T22:03:34.467Z,22.33
2023-03-29T22:07:34.584Z,22.32
2023-03-29T22:11:34.791Z,22.33
2023-03-29T22:15:34.923Z,22.31
2023-03-29T22:19:35.085Z,22.30
2023-03-29T22:23:35.229Z,22.31
2023-03-29T22:27:35.360Z,22.30
2023-03-29T22:31:35.588Z,22.31
2023-03-29T22:35:35.704Z,22.29
2023-03-29T22:39:35.834Z,22.29
2023-03-29T22:43:35.976Z,22.29
2023-03-29T22:47:36.187Z,22.27
2023-03-29T22:51:36.312Z,22.27
2023-03-29T22:55:36.419Z,22.26
2023-03-29T22:59:36.601Z,22.25
2023-03-29T23:03:36.746Z,22.24
2023-03-29T23:07:36.839Z,22.23
2023-03-29T23:11:37.008Z,22.22
2023-03-29T23:15:37.157Z,22.22
2023-03-29T23:19:37.288Z,22.22
2023-03-29T23:23:37.428Z,22.19
2023-03-29T23:27:37.597Z,22.19
2023-03-29T23:31:37.819Z,22.18
2023-03-29T23:35:38.073Z,22.18
2023-03-29T23:39:38.091Z,22.17
2023-03-29T23:43:38.275Z,22.17
2023-03-29T23:47:38.452Z,22.17
2023-03-29T23:51:38.592Z,22.16
2023-03-29T23:55:38.742Z,22.17
2023-03-29T23:59:38.907Z,22.18
